createdAt,value
2023-04-09T00:02:03.435Z,5.82
2023-04-09T00:04:31.512Z,5.82
2023-04-09T00:06:59.441Z,5.84
2023-04-09T00:09:27.546Z,5.84
2023-04-09T00:11:57.169Z,5.85
2023-04-09T00:14:25.547Z,5.89
2023-04-09T00:16:53.653Z,5.95
2023-04-09T00:19:21.833Z,5.98
2023-04-09T00:21:49.792Z,6.01
2023-04-09T00:24:17.697Z,5.95
2023-04-09T00:26:45.613Z,5.98
2023-04-09T00:29:15.025Z,6.00
2023-04-09T00:31:43.143Z,5.97
2023-04-09T00:34:11.628Z,5.96
2023-04-09T00:36:39.532Z,5.96
2023-04-09T00:39:07.557Z,5.94
2023-04-09T00:41:36.057Z,5.94
2023-04-09T00:44:04.025Z,5.90
2023-04-09T00:46:33.846Z,5.90
2023-04-09T00:49:01.887Z,5.90
2023-04-09T00:51:29.833Z,5.82
2023-04-09T00:53:57.891Z,5.89
2023-04-09T00:56:25.895Z,5.82
2023-04-09T00:58:54.423Z,5.84
2023-04-09T01:01:22.652Z,5.86
2023-04-09T01:03:52.291Z,5.80
2023-04-09T01:06:29.205Z,5.89
2023-04-09T01:09:04.246Z,5.87
2023-04-09T01:11:39.433Z,5.86
2023-04-09T01:14:13.987Z,5.99
2023-04-09T01:16:45.774Z,6.02
2023-04-09T01:19:33.666Z,5.99
2023-04-09T01:22:03.698Z,5.95
2023-04-09T01:24:42.760Z,5.95
2023-04-09T01:27:11.373Z,5.98
2023-04-09T01:29:47.632Z,6.02
2023-04-09T01:32:19.848Z,6.04
2023-04-09T01:34:49.445Z,6.08
2023-04-09T01:37:18.306Z,6.13
2023-04-09T01:39:46.669Z,6.05
2023-04-09T01:42:17.806Z,6.02
2023-04-09T01:44:48.229Z,6.09
2023-04-09T01:47:16.860Z,6.13
2023-04-09T01:49:44.929Z,6.21
2023-04-09T01:52:13.487Z,6.12
2023-04-09T01:54:41.485Z,6.23
2023-04-09T01:57:09.455Z,6.02
2023-04-09T01:59:37.407Z,6.26
2023-04-09T02:02:12.039Z,6.28
2023-04-09T02:04:45.057Z,6.29
2023-04-09T02:07:19.730Z,6.33
2023-04-09T02:09:49.559Z,6.38
2023-04-09T02:12:19.785Z,6.35
2023-04-09T02:14:50.505Z,6.32
2023-04-09T02:17:20.320Z,6.26
2023-04-09T02:19:49.262Z,6.15
2023-04-09T02:22:18.313Z,6.21
2023-04-09T02:24:47.824Z,6.20
2023-04-09T02:27:16.319Z,6.22
2023-04-09T02:29:44.413Z,6.19
2023-04-09T02:32:12.360Z,6.19
2023-04-09T02:34:41.665Z,6.22
2023-04-09T02:37:09.637Z,6.09
2023-04-09T02:39:37.512Z,6.12
2023-04-09T02:42:07.896Z,6.20
2023-04-09T02:44:35.883Z,6.19
2023-04-09T02:47:03.917Z,6.14
2023-04-09T02:49:31.902Z,6.07
2023-04-09T02:52:01.244Z,6.16
2023-04-09T02:54:29.225Z,6.07
2023-04-09T02:56:57.501Z,6.20
2023-04-09T02:59:25.514Z,6.19
2023-04-09T03:01:53.705Z,5.95
2023-04-09T03:04:21.743Z,6.06
2023-04-09T03:06:51.705Z,6.03
2023-04-09T03:09:20.982Z,6.06
2023-04-09T03:11:48.877Z,6.01
2023-04-09T03:14:16.893Z,5.96
2023-04-09T03:16:44.912Z,5.96
2023-04-09T03:19:12.856Z,5.89
2023-04-09T03:21:40.974Z,5.85
2023-04-09T03:24:08.921Z,5.75
2023-04-09T03:26:38.565Z,5.75
2023-04-09T03:29:07.336Z,5.75
2023-04-09T03:31:35.471Z,5.69
2023-04-09T03:34:03.495Z,5.76
2023-04-09T03:36:31.719Z,5.64
2023-04-09T03:39:00.464Z,5.63
2023-04-09T03:41:28.536Z,5.56
2023-04-09T03:43:57.930Z,5.67
2023-04-09T03:46:26.363Z,5.64
2023-04-09T03:48:54.573Z,5.58
2023-04-09T03:51:22.685Z,5.62
2023-04-09T03:53:50.890Z,5.57
2023-04-09T03:56:18.827Z,5.61
2023-04-09T03:58:48.508Z,5.62
2023-04-09T04:01:17.872Z,5.69
2023-04-09T04:03:46.067Z,5.69
2023-04-09T04:06:14.109Z,5.76
2023-04-09T04:08:42.079Z,5.70
2023-04-09T04:11:10.209Z,5.73
2023-04-09T04:13:38.111Z,5.64
2023-04-09T04:16:09.298Z,5.65
2023-04-09T04:18:38.983Z,5.64
2023-04-09T04:21:07.091Z,5.72
2023-04-09T04:23:35.917Z,5.74
2023-04-09T04:26:10.071Z,5.79
2023-04-09T04:28:38.386Z,5.86
2023-04-09T04:31:09.169Z,5.91
2023-04-09T04:33:39.392Z,5.92
2023-04-09T04:36:08.255Z,5.87
2023-04-09T04:38:37.103Z,5.90
2023-04-09T04:41:05.476Z,5.87
2023-04-09T04:43:33.473Z,5.77
2023-04-09T04:46:01.477Z,5.94
2023-04-09T04:48:31.051Z,5.96
2023-04-09T04:51:02.094Z,6.05
2023-04-09T04:53:30.197Z,6.11
2023-04-09T04:55:58.166Z,6.16
2023-04-09T04:58:26.708Z,6.25
2023-04-09T05:00:54.927Z,6.31
2023-04-09T05:03:23.611Z,6.48
2023-04-09T05:05:53.284Z,6.66
2023-04-09T05:08:22.735Z,6.82
2023-04-09T05:10:51.373Z,6.77
2023-04-09T05:13:19.689Z,7.06
2023-04-09T05:15:47.798Z,7.68
2023-04-09T05:18:15.780Z,7.79
2023-04-09T05:20:43.849Z,7.74
2023-04-09T05:23:12.607Z,7.96
2023-04-09T05:25:41.977Z,8.07
2023-04-09T05:28:11.308Z,7.86
2023-04-09T05:30:39.437Z,7.68
2023-04-09T05:33:07.378Z,7.58
2023-04-09T05:35:39.376Z,7.57
2023-04-09T05:38:07.549Z,7.48
2023-04-09T05:40:36.499Z,7.41
2023-04-09T05:43:07.257Z,7.44
2023-04-09T05:45:35.272Z,7.51
2023-04-09T05:48:03.697Z,7.60
2023-04-09T05:50:37.988Z,7.57
2023-04-09T05:53:13.191Z,7.79
2023-04-09T05:55:41.288Z,7.86
2023-04-09T05:58:10.930Z,7.74
2023-04-09T06:00:38.965Z,8.05
2023-04-09T06:03:07.192Z,8.10
2023-04-09T06:05:35.232Z,7.74
2023-04-09T06:08:03.634Z,8.02
2023-04-09T06:10:34.586Z,8.03
2023-04-09T06:13:02.591Z,7.75
2023-04-09T06:15:32.050Z,8.06
2023-04-09T06:18:00.140Z,7.88
2023-04-09T06:20:28.389Z,8.06
2023-04-09T06:22:56.415Z,8.17
2023-04-09T06:25:24.603Z,8.52
2023-04-09T06:27:52.598Z,8.52
2023-04-09T06:30:20.744Z,8.52
2023-04-09T06:32:54.487Z,8.29
2023-04-09T06:35:23.426Z,8.67
2023-04-09T06:37:51.562Z,8.66
2023-04-09T06:40:22.938Z,8.72
2023-04-09T06:42:51.569Z,8.45
2023-04-09T06:45:19.696Z,8.12
2023-04-09T06:47:49.352Z,8.41
2023-04-09T06:50:17.598Z,8.32
2023-04-09T06:52:45.587Z,8.39
2023-04-09T06:55:14.075Z,8.52
2023-04-09T06:57:42.184Z,8.51
2023-04-09T07:00:11.508Z,8.69
2023-04-09T07:02:39.942Z,8.89
2023-04-09T07:05:10.417Z,9.04
2023-04-09T07:07:38.899Z,9.08
2023-04-09T07:10:07.995Z,9.20
2023-04-09T07:12:36.316Z,9.09
2023-04-09T07:15:08.119Z,9.28
2023-04-09T07:17:37.059Z,9.40
2023-04-09T07:20:05.605Z,9.45
2023-04-09T07:22:35.175Z,9.40
2023-04-09T07:25:03.419Z,9.10
2023-04-09T07:27:31.905Z,9.17
2023-04-09T07:30:00.890Z,9.25
2023-04-09T07:32:29.232Z,9.36
2023-04-09T07:34:59.414Z,9.12
2023-04-09T07:37:28.335Z,9.49
2023-04-09T07:39:57.960Z,8.80
2023-04-09T07:42:25.965Z,9.35
2023-04-09T07:44:54.001Z,9.27
2023-04-09T07:47:23.966Z,8.97
2023-04-09T07:49:52.108Z,9.04
2023-04-09T07:52:20.909Z,9.13
2023-04-09T07:54:49.019Z,8.95
2023-04-09T07:57:18.807Z,9.21
2023-04-09T07:59:49.135Z,9.13
2023-04-09T08:02:17.942Z,9.12
2023-04-09T08:04:46.148Z,9.11
2023-04-09T08:07:14.319Z,8.71
2023-04-09T08:09:42.341Z,9.13
2023-04-09T08:12:11.148Z,9.14
2023-04-09T08:14:41.400Z,9.16
2023-04-09T08:17:09.511Z,9.35
2023-04-09T08:22:22.802Z,9.43
2023-04-09T08:24:53.388Z,9.37
2023-04-09T08:27:22.133Z,9.38
2023-04-09T08:29:51.660Z,9.50
2023-04-09T08:32:19.946Z,9.40
2023-04-09T08:34:48.221Z,9.36
2023-04-09T08:37:16.822Z,9.42
2023-04-09T08:39:44.859Z,9.75
2023-04-09T08:42:19.064Z,9.61
2023-04-09T08:44:47.716Z,9.93
2023-04-09T08:47:17.584Z,9.91
2023-04-09T08:49:45.770Z,9.89
2023-04-09T08:52:16.430Z,10.23
2023-04-09T08:54:45.717Z,10.11
2023-04-09T08:57:13.808Z,10.33
2023-04-09T08:59:41.923Z,10.54
2023-04-09T09:02:12.123Z,11.16
2023-04-09T09:04:48.554Z,11.20
2023-04-09T09:07:17.792Z,10.98
2023-04-09T09:09:53.906Z,10.37
2023-04-09T09:12:40.557Z,10.53
2023-04-09T09:15:27.435Z,10.52
2023-04-09T09:17:57.059Z,10.72
2023-04-09T09:20:28.019Z,10.71
2023-04-09T09:22:57.751Z,10.20
2023-04-09T09:25:26.446Z,10.22
2023-04-09T09:27:55.438Z,10.42
2023-04-09T09:30:24.321Z,10.65
2023-04-09T09:32:54.916Z,11.16
2023-04-09T09:35:23.540Z,11.75
2023-04-09T09:38:05.080Z,11.57
2023-04-09T09:40:33.313Z,11.93
2023-04-09T09:43:01.380Z,12.11
2023-04-09T09:45:31.517Z,11.89
2023-04-09T09:47:59.725Z,12.29
2023-04-09T09:50:31.785Z,13.12
2023-04-09T09:53:06.281Z,14.24
2023-04-09T09:55:35.916Z,13.94
2023-04-09T09:58:12.380Z,14.07
2023-04-09T10:00:41.590Z,13.48
2023-04-09T10:03:15.588Z,14.07
2023-04-09T10:05:43.940Z,13.13
2023-04-09T10:08:13.921Z,12.98
2023-04-09T10:10:43.654Z,12.35
2023-04-09T10:13:17.265Z,13.55
2023-04-09T10:15:46.330Z,13.28
2023-04-09T10:18:15.089Z,13.86
2023-04-09T10:20:48.989Z,14.69
2023-04-09T10:23:32.517Z,14.37
2023-04-09T10:26:00.989Z,14.41
2023-04-09T10:28:29.045Z,14.89
2023-04-09T10:30:57.598Z,14.30
2023-04-09T10:33:28.228Z,13.52
2023-04-09T10:35:58.569Z,13.76
2023-04-09T10:38:38.799Z,13.56
2023-04-09T10:41:15.106Z,13.59
2023-04-09T10:43:43.823Z,13.33
2023-04-09T10:46:28.915Z,12.49
2023-04-09T10:49:13.763Z,12.84
2023-04-09T10:51:42.427Z,13.20
2023-04-09T10:54:46.225Z,13.43
2023-04-09T10:57:19.536Z,13.82
2023-04-09T10:59:49.743Z,14.04
2023-04-09T11:02:55.157Z,14.23
2023-04-09T11:05:32.092Z,14.98
2023-04-09T11:08:06.012Z,14.36
2023-04-09T11:10:35.773Z,13.90
2023-04-09T11:13:04.097Z,14.13
2023-04-09T11:15:33.430Z,13.69
2023-04-09T11:18:02.262Z,13.40
2023-04-09T11:20:31.172Z,13.02
2023-04-09T11:23:00.844Z,13.10
2023-04-09T11:25:31.551Z,12.79
2023-04-09T11:28:03.466Z,12.69
2023-04-09T11:30:32.007Z,12.60
2023-04-09T11:33:00.377Z,12.26
2023-04-09T11:35:28.467Z,12.24
2023-04-09T11:37:56.498Z,12.14
2023-04-09T11:40:29.332Z,12.06
2023-04-09T11:42:57.774Z,12.41
2023-04-09T11:45:29.261Z,12.14
2023-04-09T11:47:57.514Z,12.75
2023-04-09T11:50:28.126Z,12.59
2023-04-09T11:52:56.300Z,12.98
2023-04-09T11:55:25.832Z,12.96
2023-04-09T11:57:58.198Z,12.58
2023-04-09T12:00:28.316Z,12.66
2023-04-09T12:03:04.237Z,12.96
2023-04-09T12:05:34.509Z,12.95
2023-04-09T12:08:05.185Z,12.59
2023-04-09T12:10:35.141Z,13.03
2023-04-09T12:13:04.484Z,12.27
2023-04-09T12:15:36.098Z,13.00
2023-04-09T12:18:04.701Z,13.12
2023-04-09T12:20:37.839Z,13.11
2023-04-09T12:23:07.786Z,13.10
2023-04-09T12:25:37.380Z,13.04
2023-04-09T12:28:05.878Z,13.21
2023-04-09T12:30:38.648Z,13.05
2023-04-09T12:33:09.556Z,13.08
2023-04-09T12:35:39.518Z,13.36
2023-04-09T12:38:07.803Z,13.39
2023-04-09T12:40:36.938Z,13.34
2023-04-09T12:43:05.555Z,12.72
2023-04-09T12:45:35.916Z,13.15
2023-04-09T12:48:03.876Z,13.33
2023-04-09T12:50:32.121Z,13.09
2023-04-09T12:53:00.423Z,12.86
2023-04-09T12:55:28.654Z,12.77
2023-04-09T12:57:56.644Z,12.49
2023-04-09T13:00:25.061Z,12.89
2023-04-09T13:03:00.000Z,12.92
2023-04-09T13:05:33.758Z,12.95
2023-04-09T13:08:03.589Z,13.02
2023-04-09T13:10:37.523Z,12.93
2023-04-09T13:13:12.246Z,12.64
2023-04-09T13:15:44.057Z,12.63
2023-04-09T13:18:18.325Z,12.58
2023-04-09T13:20:47.491Z,12.42
2023-04-09T13:23:16.569Z,12.45
2023-04-09T13:25:47.431Z,12.06
2023-04-09T13:28:16.141Z,11.97
2023-04-09T13:30:46.678Z,11.94
2023-04-09T13:33:16.507Z,12.06
2023-04-09T13:35:44.667Z,12.04
2023-04-09T13:38:12.557Z,12.03
2023-04-09T13:40:40.779Z,11.99
2023-04-09T13:43:10.096Z,11.70
2023-04-09T13:45:38.035Z,12.31
2023-04-09T13:48:07.864Z,12.42
2023-04-09T13:50:37.603Z,12.56
2023-04-09T13:53:05.840Z,12.68
2023-04-09T13:55:33.878Z,12.79
2023-04-09T13:58:01.819Z,12.87
2023-04-09T14:00:29.905Z,12.91
2023-04-09T14:02:58.147Z,12.90
2023-04-09T14:05:26.294Z,12.84
2023-04-09T14:07:55.745Z,12.89
2023-04-09T14:10:23.964Z,12.65
2023-04-09T14:12:53.300Z,13.00
2023-04-09T14:15:22.305Z,12.88
2023-04-09T14:17:50.837Z,12.91
2023-04-09T14:20:20.104Z,12.80
2023-04-09T14:22:49.596Z,12.91
2023-04-09T14:25:19.135Z,12.95
2023-04-09T14:27:47.155Z,12.97
2023-04-09T14:30:15.228Z,12.90
2023-04-09T14:32:43.336Z,13.02
2023-04-09T14:35:11.448Z,12.99
2023-04-09T14:37:42.300Z,12.92
2023-04-09T14:40:10.710Z,12.83
2023-04-09T14:42:40.570Z,12.98
2023-04-09T14:45:09.410Z,12.90
2023-04-09T14:47:37.612Z,12.77
2023-04-09T14:50:05.976Z,12.72
2023-04-09T14:52:34.347Z,12.65
2023-04-09T14:55:02.367Z,12.53
2023-04-09T14:57:31.427Z,12.50
2023-04-09T15:00:01.061Z,11.99
2023-04-09T15:02:29.176Z,12.35
2023-04-09T15:04:57.823Z,12.18
2023-04-09T15:07:26.720Z,12.26
2023-04-09T15:09:54.741Z,12.22
2023-04-09T15:12:23.824Z,12.21
2023-04-09T15:14:51.814Z,12.21
2023-04-09T15:17:21.500Z,12.04
2023-04-09T15:19:49.727Z,12.27
2023-04-09T15:22:17.916Z,12.24
2023-04-09T15:24:46.316Z,12.05
2023-04-09T15:27:14.444Z,12.19
2023-04-09T15:29:43.237Z,12.11
2023-04-09T15:32:11.854Z,12.03
2023-04-09T15:34:42.193Z,11.91
2023-04-09T15:37:13.567Z,11.64
2023-04-09T15:39:42.786Z,11.39
2023-04-09T15:42:13.469Z,11.35
2023-04-09T15:44:43.954Z,11.35
2023-04-09T15:47:11.955Z,11.30
2023-04-09T15:49:41.543Z,11.15
2023-04-09T15:52:09.578Z,11.11
2023-04-09T15:54:37.853Z,10.91
2023-04-09T15:57:05.887Z,10.77
2023-04-09T15:59:34.243Z,10.60
2023-04-09T16:02:03.206Z,10.56
2023-04-09T16:04:31.396Z,10.70
2023-04-09T16:07:01.749Z,10.68
2023-04-09T16:09:29.732Z,10.62
2023-04-09T16:11:57.916Z,10.56
2023-04-09T16:14:25.926Z,10.41
2023-04-09T16:16:56.290Z,10.48
2023-04-09T16:19:25.157Z,10.47
2023-04-09T16:21:53.369Z,10.23
2023-04-09T16:24:22.792Z,10.40
2023-04-09T16:26:50.816Z,10.47
2023-04-09T16:29:19.001Z,10.48
2023-04-09T16:31:47.000Z,10.43
2023-04-09T16:34:14.940Z,10.41
2023-04-09T16:36:43.546Z,10.35
2023-04-09T16:39:12.042Z,10.40
2023-04-09T16:41:41.659Z,10.45
2023-04-09T16:44:09.691Z,10.43
2023-04-09T16:46:39.144Z,10.50
2023-04-09T16:49:07.152Z,10.38
2023-04-09T16:51:35.329Z,10.42
2023-04-09T16:54:03.584Z,10.36
2023-04-09T16:56:32.005Z,10.29
2023-04-09T16:59:01.391Z,10.30
2023-04-09T17:01:29.422Z,10.30
2023-04-09T17:04:00.837Z,10.26
2023-04-09T17:06:29.014Z,10.23
2023-04-09T17:08:57.449Z,10.17
2023-04-09T17:11:25.452Z,10.19
2023-04-09T17:13:53.462Z,10.13
2023-04-09T17:16:22.988Z,10.16
2023-04-09T17:18:51.506Z,10.11
2023-04-09T17:21:19.955Z,10.01
2023-04-09T17:23:48.014Z,10.03
2023-04-09T17:26:17.584Z,10.06
2023-04-09T17:28:49.242Z,10.03
2023-04-09T17:31:29.699Z,9.85
2023-04-09T17:34:05.068Z,9.87
2023-04-09T17:36:36.942Z,9.85
2023-04-09T17:39:15.123Z,9.92
2023-04-09T17:41:48.851Z,9.83
2023-04-09T17:44:20.289Z,9.97
2023-04-09T17:46:53.298Z,9.83
2023-04-09T17:49:26.466Z,9.85
2023-04-09T17:51:57.541Z,9.91
2023-04-09T17:54:35.968Z,9.57
2023-04-09T17:57:08.095Z,9.88
2023-04-09T17:59:38.267Z,9.95
2023-04-09T18:02:13.854Z,9.89
2023-04-09T18:04:47.853Z,9.84
2023-04-09T18:07:20.696Z,9.85
2023-04-09T18:09:51.858Z,9.82
2023-04-09T18:12:25.905Z,9.83
2023-04-09T18:14:59.889Z,9.59
2023-04-09T18:17:35.930Z,9.85
2023-04-09T18:20:07.220Z,9.80
2023-04-09T18:22:40.616Z,9.79
2023-04-09T18:25:13.931Z,9.72
2023-04-09T18:27:47.998Z,9.69
2023-04-09T18:30:30.699Z,9.64
2023-04-09T18:33:03.239Z,9.63
2023-04-09T18:35:38.082Z,9.62
2023-04-09T18:38:11.970Z,9.63
2023-04-09T18:40:44.665Z,9.66
2023-04-09T18:43:18.553Z,9.67
2023-04-09T18:45:49.542Z,9.59
2023-04-09T18:48:23.654Z,9.33
2023-04-09T18:50:54.860Z,9.31
2023-04-09T18:53:30.510Z,9.36
2023-04-09T18:56:18.234Z,9.38
2023-04-09T18:58:51.077Z,9.39
2023-04-09T19:01:24.471Z,9.37
2023-04-09T19:03:56.669Z,9.33
2023-04-09T19:06:32.380Z,9.40
2023-04-09T19:09:03.597Z,9.41
2023-04-09T19:11:36.267Z,9.38
2023-04-09T19:14:06.871Z,9.21
2023-04-09T19:16:38.776Z,9.48
2023-04-09T19:19:13.215Z,9.51
2023-04-09T19:21:47.055Z,9.52
2023-04-09T19:24:19.122Z,9.48
2023-04-09T19:26:52.776Z,9.23
2023-04-09T19:29:28.341Z,9.45
2023-04-09T19:32:01.953Z,9.48
2023-04-09T19:34:33.583Z,9.33
2023-04-09T19:37:07.148Z,9.53
2023-04-09T19:39:40.442Z,9.41
2023-04-09T19:42:18.773Z,9.49
2023-04-09T19:44:52.369Z,9.52
2023-04-09T19:47:23.862Z,9.42
2023-04-09T19:49:59.743Z,9.36
2023-04-09T19:52:30.980Z,9.30
2023-04-09T19:55:03.822Z,9.30
2023-04-09T19:57:35.827Z,9.08
2023-04-09T20:00:12.572Z,9.12
2023-04-09T20:02:43.884Z,9.17
2023-04-09T20:05:24.768Z,8.99
2023-04-09T20:08:01.292Z,8.94
2023-04-09T20:10:30.181Z,8.83
2023-04-09T20:12:59.944Z,8.93
2023-04-09T20:15:28.934Z,8.62
2023-04-09T20:17:57.447Z,8.73
2023-04-09T20:20:27.323Z,8.77
2023-04-09T20:22:56.584Z,8.78
2023-04-09T20:25:25.840Z,8.71
2023-04-09T20:27:56.720Z,8.59
2023-04-09T20:30:24.979Z,8.62
2023-04-09T20:32:53.173Z,8.61
2023-04-09T20:35:21.213Z,8.61
2023-04-09T20:37:51.366Z,8.59
2023-04-09T20:40:19.300Z,8.57
2023-04-09T20:42:47.273Z,8.54
2023-04-09T20:45:15.833Z,8.43
2023-04-09T20:47:43.805Z,8.48
2023-04-09T20:50:12.545Z,8.47
2023-04-09T20:52:40.480Z,8.47
2023-04-09T20:55:10.319Z,8.45
2023-04-09T20:57:38.311Z,8.44
2023-04-09T21:00:07.429Z,8.43
2023-04-09T21:02:35.514Z,8.43
2023-04-09T21:05:15.405Z,8.31
2023-04-09T21:07:50.813Z,8.38
2023-04-09T21:10:20.377Z,8.34
2023-04-09T21:12:48.394Z,8.25
2023-04-09T21:15:16.700Z,8.12
2023-04-09T21:17:44.791Z,8.05
2023-04-09T21:20:14.674Z,8.13
2023-04-09T21:22:42.620Z,8.12
2023-04-09T21:25:11.678Z,8.09
2023-04-09T21:27:42.178Z,8.05
2023-04-09T21:30:11.160Z,7.91
2023-04-09T21:32:39.294Z,8.03
2023-04-09T21:35:07.719Z,8.04
2023-04-09T21:37:37.547Z,7.95
2023-04-09T21:40:06.327Z,8.05
2023-04-09T21:42:34.280Z,8.00
2023-04-09T21:45:03.817Z,7.86
2023-04-09T21:47:32.058Z,8.02
2023-04-09T21:50:00.088Z,8.00
2023-04-09T21:52:28.200Z,7.96
2023-04-09T21:54:56.155Z,7.92
2023-04-09T21:57:24.179Z,7.89
2023-04-09T21:59:52.116Z,6.81
2023-04-09T22:02:21.611Z,7.45
2023-04-09T22:04:49.660Z,7.76
2023-04-09T22:07:17.717Z,7.56
2023-04-09T22:09:45.620Z,7.57
2023-04-09T22:12:13.534Z,7.60
2023-04-09T22:14:41.970Z,7.56
2023-04-09T22:17:10.060Z,7.51
2023-04-09T22:19:39.375Z,7.45
2023-04-09T22:22:09.140Z,7.42
2023-04-09T22:24:37.090Z,7.40
2023-04-09T22:27:05.191Z,7.24
2023-04-09T22:29:33.901Z,7.42
2023-04-09T22:32:02.690Z,7.41
2023-04-09T22:34:33.120Z,7.43
2023-04-09T22:37:02.748Z,7.29
2023-04-09T22:39:31.368Z,7.32
2023-04-09T22:41:59.513Z,7.35
2023-04-09T22:44:27.559Z,7.09
2023-04-09T22:46:55.555Z,7.27
2023-04-09T22:49:24.137Z,7.23
2023-04-09T22:51:52.148Z,7.14
2023-04-09T22:54:21.576Z,7.20
2023-04-09T22:56:49.753Z,7.17
2023-04-09T22:59:17.815Z,7.04
2023-04-09T23:01:47.941Z,7.14
2023-04-09T23:04:17.908Z,7.15
2023-04-09T23:06:48.641Z,7.14
2023-04-09T23:09:18.519Z,7.20
2023-04-09T23:11:47.950Z,7.11
2023-04-09T23:14:16.094Z,7.13
2023-04-09T23:16:44.098Z,7.16
2023-04-09T23:19:12.475Z,7.23
2023-04-09T23:21:40.470Z,7.24
2023-04-09T23:24:08.475Z,7.20
2023-04-09T23:26:36.425Z,7.25
2023-04-09T23:29:05.831Z,7.14
2023-04-09T23:31:33.810Z,7.19
2023-04-09T23:34:01.737Z,7.24
2023-04-09T23:36:30.013Z,7.23
2023-04-09T23:38:57.918Z,7.23
2023-04-09T23:41:26.117Z,7.26
2023-04-09T23:43:54.193Z,7.29
2023-04-09T23:46:23.850Z,7.32
2023-04-09T23:48:51.789Z,7.31
2023-04-09T23:51:20.319Z,7.30
2023-04-09T23:53:48.249Z,7.27
2023-04-09T23:56:16.231Z,7.34
2023-04-09T23:58:44.224Z,7.35
